sensor_id;sensor_type;location;lat;lon;timestamp;P1;durP1;ratioP1;P2;durP2;ratioP2
11447;SDS011;43755;49.736;8.734;2023-05-10T00:00:15;1.50;;;1.40;;
11447;SDS011;43755;49.736;8.734;2023-05-10T00:02:18;1.63;;;1.52;;
11447;SDS011;43755;49.736;8.734;2023-05-10T00:04:19;1.63;;;1.63;;
11447;SDS011;43755;49.736;8.734;2023-05-10T00:06:21;1.70;;;1.70;;
11447;SDS011;43755;49.736;8.734;2023-05-10T00:08:22;2.03;;;1.92;;
11447;SDS011;43755;49.736;8.734;2023-05-10T00:10:24;3.03;;;1.70;;
11447;SDS011;43755;49.736;8.734;2023-05-10T00:12:25;1.90;;;1.80;;
11447;SDS011;43755;49.736;8.734;2023-05-10T00:14:26;2.35;;;1.80;;
11447;SDS011;43755;49.736;8.734;2023-05-10T00:16:28;2.00;;;1.90;;
11447;SDS011;43755;49.736;8.734;2023-05-10T00:18:31;6.15;;;2.28;;
11447;SDS011;43755;49.736;8.734;2023-05-10T00:20:32;2.20;;;2.10;;
11447;SDS011;43755;49.736;8.734;2023-05-10T00:22:34;1.80;;;1.70;;
11447;SDS011;43755;49.736;8.734;2023-05-10T00:24:35;1.73;;;1.63;;
11447;SDS011;43755;49.736;8.734;2023-05-10T00:26:37;2.25;;;1.73;;
11447;SDS011;43755;49.736;8.734;2023-05-10T00:28:38;1.73;;;1.73;;
11447;SDS011;43755;49.736;8.734;2023-05-10T00:30:39;2.00;;;1.90;;
11447;SDS011;43755;49.736;8.734;2023-05-10T00:32:41;1.90;;;1.80;;
11447;SDS011;43755;49.736;8.734;2023-05-10T00:34:44;1.98;;;1.88;;
11447;SDS011;43755;49.736;8.734;2023-05-10T00:36:46;2.05;;;2.05;;
11447;SDS011;43755;49.736;8.734;2023-05-10T00:38:47;2.00;;;1.90;;
11447;SDS011;43755;49.736;8.734;2023-05-10T00:40:48;2.30;;;2.20;;
11447;SDS011;43755;49.736;8.734;2023-05-10T00:42:50;2.33;;;2.13;;
11447;SDS011;43755;49.736;8.734;2023-05-10T00:44:51;2.33;;;1.90;;
11447;SDS011;43755;49.736;8.734;2023-05-10T00:46:53;2.17;;;2.08;;
11447;SDS011;43755;49.736;8.734;2023-05-10T00:48:54;1.90;;;1.80;;
11447;SDS011;43755;49.736;8.734;2023-05-10T00:50:57;2.08;;;1.88;;
11447;SDS011;43755;49.736;8.734;2023-05-10T00:52:58;2.30;;;2.10;;
11447;SDS011;43755;49.736;8.734;2023-05-10T00:55:00;2.40;;;2.30;;
11447;SDS011;43755;49.736;8.734;2023-05-10T00:57:03;2.30;;;2.20;;
11447;SDS011;43755;49.736;8.734;2023-05-10T00:59:04;2.25;;;2.00;;
11447;SDS011;43755;49.736;8.734;2023-05-10T01:01:06;2.50;;;2.30;;
11447;SDS011;43755;49.736;8.734;2023-05-10T01:03:09;2.10;;;2.00;;
11447;SDS011;43755;49.736;8.734;2023-05-10T01:05:11;2.30;;;1.90;;
11447;SDS011;43755;49.736;8.734;2023-05-10T01:07:14;2.35;;;2.25;;
11447;SDS011;43755;49.736;8.734;2023-05-10T01:09:16;2.72;;;2.63;;
11447;SDS011;43755;49.736;8.734;2023-05-10T01:11:18;3.55;;;2.70;;
11447;SDS011;43755;49.736;8.734;2023-05-10T01:13:23;3.17;;;3.00;;
11447;SDS011;43755;49.736;8.734;2023-05-10T01:15:32;3.67;;;3.42;;
11447;SDS011;43755;49.736;8.734;2023-05-10T01:17:34;3.50;;;3.30;;
11447;SDS011;43755;49.736;8.734;2023-05-10T01:19:38;2.97;;;2.88;;
11447;SDS011;43755;49.736;8.734;2023-05-10T01:21:43;2.90;;;2.70;;
11447;SDS011;43755;49.736;8.734;2023-05-10T01:24:03;3.10;;;2.90;;
11447;SDS011;43755;49.736;8.734;2023-05-10T01:26:23;2.95;;;2.75;;
11447;SDS011;43755;49.736;8.734;2023-05-10T01:28:58;2.75;;;2.63;;
11447;SDS011;43755;49.736;8.734;2023-05-10T01:33:55;2.70;;;2.38;;
11447;SDS011;43755;49.736;8.734;2023-05-10T01:36:04;2.92;;;2.83;;
11447;SDS011;43755;49.736;8.734;2023-05-10T01:38:12;3.63;;;3.42;;
11447;SDS011;43755;49.736;8.734;2023-05-10T01:40:21;3.65;;;3.35;;
11447;SDS011;43755;49.736;8.734;2023-05-10T01:42:28;3.05;;;2.95;;
11447;SDS011;43755;49.736;8.734;2023-05-10T01:44:39;3.65;;;3.45;;
11447;SDS011;43755;49.736;8.734;2023-05-10T01:46:44;3.70;;;3.50;;
11447;SDS011;43755;49.736;8.734;2023-05-10T01:48:51;4.78;;;4.30;;
11447;SDS011;43755;49.736;8.734;2023-05-10T01:50:58;4.10;;;3.80;;
11447;SDS011;43755;49.736;8.734;2023-05-10T01:53:00;4.38;;;4.07;;
11447;SDS011;43755;49.736;8.734;2023-05-10T01:55:04;5.88;;;4.20;;
11447;SDS011;43755;49.736;8.734;2023-05-10T01:57:09;4.55;;;4.15;;
11447;SDS011;43755;49.736;8.734;2023-05-10T01:59:15;4.90;;;4.30;;
11447;SDS011;43755;49.736;8.734;2023-05-10T02:01:19;5.03;;;4.70;;
11447;SDS011;43755;49.736;8.734;2023-05-10T02:03:23;4.40;;;4.20;;
11447;SDS011;43755;49.736;8.734;2023-05-10T02:05:26;4.53;;;4.22;;
11447;SDS011;43755;49.736;8.734;2023-05-10T02:07:30;5.03;;;4.70;;
11447;SDS011;43755;49.736;8.734;2023-05-10T02:09:33;5.10;;;4.72;;
11447;SDS011;43755;49.736;8.734;2023-05-10T02:11:36;4.68;;;4.38;;
11447;SDS011;43755;49.736;8.734;2023-05-10T02:13:39;4.90;;;4.60;;
11447;SDS011;43755;49.736;8.734;2023-05-10T02:15:42;5.00;;;4.70;;
11447;SDS011;43755;49.736;8.734;2023-05-10T02:17:44;5.10;;;4.80;;
11447;SDS011;43755;49.736;8.734;2023-05-10T02:19:47;4.70;;;4.40;;
11447;SDS011;43755;49.736;8.734;2023-05-10T02:21:50;4.57;;;4.35;;
11447;SDS011;43755;49.736;8.734;2023-05-10T02:23:53;6.03;;;4.97;;
11447;SDS011;43755;49.736;8.734;2023-05-10T02:25:56;5.30;;;5.00;;
11447;SDS011;43755;49.736;8.734;2023-05-10T02:27:59;5.93;;;5.53;;
11447;SDS011;43755;49.736;8.734;2023-05-10T02:30:04;5.75;;;5.30;;
11447;SDS011;43755;49.736;8.734;2023-05-10T02:32:07;4.90;;;4.50;;
11447;SDS011;43755;49.736;8.734;2023-05-10T02:34:11;4.35;;;4.03;;
11447;SDS011;43755;49.736;8.734;2023-05-10T02:36:13;5.20;;;4.90;;
11447;SDS011;43755;49.736;8.734;2023-05-10T02:38:16;5.82;;;5.05;;
11447;SDS011;43755;49.736;8.734;2023-05-10T02:40:22;5.75;;;5.35;;
11447;SDS011;43755;49.736;8.734;2023-05-10T02:42:25;5.57;;;5.10;;
11447;SDS011;43755;49.736;8.734;2023-05-10T02:44:28;5.63;;;5.22;;
11447;SDS011;43755;49.736;8.734;2023-05-10T02:46:31;5.53;;;5.18;;
11447;SDS011;43755;49.736;8.734;2023-05-10T02:48:32;5.20;;;4.78;;
11447;SDS011;43755;49.736;8.734;2023-05-10T02:50:34;5.00;;;4.68;;
11447;SDS011;43755;49.736;8.734;2023-05-10T02:52:39;5.03;;;4.60;;
11447;SDS011;43755;49.736;8.734;2023-05-10T02:54:44;5.03;;;4.63;;
11447;SDS011;43755;49.736;8.734;2023-05-10T02:56:50;4.57;;;4.28;;
11447;SDS011;43755;49.736;8.734;2023-05-10T02:58:54;4.80;;;4.20;;
11447;SDS011;43755;49.736;8.734;2023-05-10T03:00:56;4.57;;;4.28;;
11447;SDS011;43755;49.736;8.734;2023-05-10T03:02:57;4.63;;;4.30;;
11447;SDS011;43755;49.736;8.734;2023-05-10T03:04:59;5.00;;;4.60;;
11447;SDS011;43755;49.736;8.734;2023-05-10T03:07:00;4.80;;;4.32;;
11447;SDS011;43755;49.736;8.734;2023-05-10T03:09:02;4.72;;;4.43;;
11447;SDS011;43755;49.736;8.734;2023-05-10T03:11:12;6.50;;;4.70;;
11447;SDS011;43755;49.736;8.734;2023-05-10T03:13:25;4.78;;;4.47;;
11447;SDS011;43755;49.736;8.734;2023-05-10T03:15:37;5.00;;;4.60;;
11447;SDS011;43755;49.736;8.734;2023-05-10T03:17:50;4.53;;;4.18;;
11447;SDS011;43755;49.736;8.734;2023-05-10T03:19:56;4.80;;;4.40;;
11447;SDS011;43755;49.736;8.734;2023-05-10T03:21:59;4.63;;;4.35;;
11447;SDS011;43755;49.736;8.734;2023-05-10T03:24:09;4.85;;;4.25;;
11447;SDS011;43755;49.736;8.734;2023-05-10T03:26:15;4.13;;;3.92;;
11447;SDS011;43755;49.736;8.734;2023-05-10T03:28:21;4.68;;;4.45;;
11447;SDS011;43755;49.736;8.734;2023-05-10T03:30:28;7.70;;;4.20;;
11447;SDS011;43755;49.736;8.734;2023-05-10T03:32:30;3.88;;;3.67;;
11447;SDS011;43755;49.736;8.734;2023-05-10T03:34:34;4.68;;;4.28;;
11447;SDS011;43755;49.736;8.734;2023-05-10T03:36:42;5.57;;;4.60;;
11447;SDS011;43755;49.736;8.734;2023-05-10T03:38:43;4.75;;;4.45;;
11447;SDS011;43755;49.736;8.734;2023-05-10T03:40:45;4.57;;;4.38;;
11447;SDS011;43755;49.736;8.734;2023-05-10T03:42:46;4.95;;;4.55;;
11447;SDS011;43755;49.736;8.734;2023-05-10T03:44:49;5.18;;;4.35;;
11447;SDS011;43755;49.736;8.734;2023-05-10T03:46:50;5.00;;;4.70;;
11447;SDS011;43755;49.736;8.734;2023-05-10T03:48:52;5.18;;;4.70;;
11447;SDS011;43755;49.736;8.734;2023-05-10T03:50:53;5.22;;;4.88;;
11447;SDS011;43755;49.736;8.734;2023-05-10T03:52:54;5.13;;;4.82;;
11447;SDS011;43755;49.736;8.734;2023-05-10T03:54:57;5.40;;;5.00;;
11447;SDS011;43755;49.736;8.734;2023-05-10T03:56:58;5.60;;;5.20;;
11447;SDS011;43755;49.736;8.734;2023-05-10T03:59:00;6.18;;;5.68;;
11447;SDS011;43755;49.736;8.734;2023-05-10T04:01:02;6.10;;;5.70;;
11447;SDS011;43755;49.736;8.734;2023-05-10T04:03:04;5.60;;;5.10;;
11447;SDS011;43755;49.736;8.734;2023-05-10T04:05:06;6.90;;;6.30;;
11447;SDS011;43755;49.736;8.734;2023-05-10T04:07:08;6.70;;;6.13;;
11447;SDS011;43755;49.736;8.734;2023-05-10T04:09:10;6.72;;;6.22;;
11447;SDS011;43755;49.736;8.734;2023-05-10T04:11:11;7.10;;;6.40;;
11447;SDS011;43755;49.736;8.734;2023-05-10T04:13:14;7.30;;;6.70;;
11447;SDS011;43755;49.736;8.734;2023-05-10T04:15:19;6.80;;;5.90;;
11447;SDS011;43755;49.736;8.734;2023-05-10T04:17:21;6.28;;;5.88;;
11447;SDS011;43755;49.736;8.734;2023-05-10T04:19:23;5.93;;;5.53;;
11447;SDS011;43755;49.736;8.734;2023-05-10T04:21:24;6.45;;;5.95;;
11447;SDS011;43755;49.736;8.734;2023-05-10T04:23:26;6.47;;;6.07;;
11447;SDS011;43755;49.736;8.734;2023-05-10T04:25:28;6.55;;;6.00;;
11447;SDS011;43755;49.736;8.734;2023-05-10T04:27:29;6.45;;;6.00;;
11447;SDS011;43755;49.736;8.734;2023-05-10T04:29:31;5.70;;;5.30;;
11447;SDS011;43755;49.736;8.734;2023-05-10T04:31:32;6.13;;;5.63;;
11447;SDS011;43755;49.736;8.734;2023-05-10T04:33:35;6.70;;;6.07;;
11447;SDS011;43755;49.736;8.734;2023-05-10T04:35:37;6.25;;;5.85;;
11447;SDS011;43755;49.736;8.734;2023-05-10T04:37:39;6.22;;;5.80;;
11447;SDS011;43755;49.736;8.734;2023-05-10T04:39:41;6.38;;;5.88;;
11447;SDS011;43755;49.736;8.734;2023-05-10T04:41:42;5.97;;;5.43;;
11447;SDS011;43755;49.736;8.734;2023-05-10T04:43:44;5.53;;;5.03;;
11447;SDS011;43755;49.736;8.734;2023-05-10T04:45:45;6.22;;;5.53;;
11447;SDS011;43755;49.736;8.734;2023-05-10T04:47:47;5.85;;;5.35;;
11447;SDS011;43755;49.736;8.734;2023-05-10T04:49:50;5.43;;;5.05;;
11447;SDS011;43755;49.736;8.734;2023-05-10T04:51:51;5.97;;;5.50;;
11447;SDS011;43755;49.736;8.734;2023-05-10T04:53:52;5.85;;;5.45;;
11447;SDS011;43755;49.736;8.734;2023-05-10T04:55:54;6.15;;;5.53;;
11447;SDS011;43755;49.736;8.734;2023-05-10T04:57:55;5.65;;;5.15;;
11447;SDS011;43755;49.736;8.734;2023-05-10T04:59:57;5.05;;;4.68;;
11447;SDS011;43755;49.736;8.734;2023-05-10T05:01:58;5.45;;;4.90;;
11447;SDS011;43755;49.736;8.734;2023-05-10T05:04:00;6.50;;;4.88;;
11447;SDS011;43755;49.736;8.734;2023-05-10T05:06:03;5.68;;;4.90;;
11447;SDS011;43755;49.736;8.734;2023-05-10T05:08:04;5.13;;;4.78;;
11447;SDS011;43755;49.736;8.734;2023-05-10T05:10:06;5.32;;;4.93;;
11447;SDS011;43755;49.736;8.734;2023-05-10T05:12:09;5.40;;;5.00;;
11447;SDS011;43755;49.736;8.734;2023-05-10T05:14:13;6.50;;;4.78;;
11447;SDS011;43755;49.736;8.734;2023-05-10T05:16:15;5.30;;;4.80;;
11447;SDS011;43755;49.736;8.734;2023-05-10T05:18:16;5.13;;;4.70;;
11447;SDS011;43755;49.736;8.734;2023-05-10T05:20:18;5.22;;;4.82;;
11447;SDS011;43755;49.736;8.734;2023-05-10T05:22:21;5.28;;;4.88;;
11447;SDS011;43755;49.736;8.734;2023-05-10T05:24:27;5.80;;;4.90;;
11447;SDS011;43755;49.736;8.734;2023-05-10T05:26:28;5.50;;;5.00;;
11447;SDS011;43755;49.736;8.734;2023-05-10T05:28:30;5.80;;;5.30;;
11447;SDS011;43755;49.736;8.734;2023-05-10T05:30:32;6.10;;;5.20;;
11447;SDS011;43755;49.736;8.734;2023-05-10T05:32:34;5.80;;;5.30;;
11447;SDS011;43755;49.736;8.734;2023-05-10T05:34:35;5.55;;;5.18;;
11447;SDS011;43755;49.736;8.734;2023-05-10T05:36:37;5.75;;;5.25;;
11447;SDS011;43755;49.736;8.734;2023-05-10T05:38:40;6.10;;;5.60;;
11447;SDS011;43755;49.736;8.734;2023-05-10T05:40:41;7.22;;;5.55;;
11447;SDS011;43755;49.736;8.734;2023-05-10T05:42:43;6.25;;;5.80;;
11447;SDS011;43755;49.736;8.734;2023-05-10T05:44:44;6.28;;;5.47;;
11447;SDS011;43755;49.736;8.734;2023-05-10T05:46:46;6.25;;;5.70;;
11447;SDS011;43755;49.736;8.734;2023-05-10T05:48:47;6.25;;;5.75;;
11447;SDS011;43755;49.736;8.734;2023-05-10T05:50:48;6.18;;;5.68;;
11447;SDS011;43755;49.736;8.734;2023-05-10T05:52:50;6.28;;;5.68;;
11447;SDS011;43755;49.736;8.734;2023-05-10T05:54:53;6.03;;;5.57;;
11447;SDS011;43755;49.736;8.734;2023-05-10T05:56:54;5.47;;;4.97;;
11447;SDS011;43755;49.736;8.734;2023-05-10T05:58:56;5.50;;;5.10;;
11447;SDS011;43755;49.736;8.734;2023-05-10T06:00:57;6.03;;;5.45;;
11447;SDS011;43755;49.736;8.734;2023-05-10T06:02:59;5.28;;;4.78;;
11447;SDS011;43755;49.736;8.734;2023-05-10T06:05:00;5.57;;;4.97;;
11447;SDS011;43755;49.736;8.734;2023-05-10T06:07:02;6.78;;;5.05;;
11447;SDS011;43755;49.736;8.734;2023-05-10T06:09:03;6.28;;;4.78;;
11447;SDS011;43755;49.736;8.734;2023-05-10T06:11:06;5.43;;;5.03;;
11447;SDS011;43755;49.736;8.734;2023-05-10T06:13:07;5.15;;;4.75;;
11447;SDS011;43755;49.736;8.734;2023-05-10T06:15:10;6.45;;;4.57;;
11447;SDS011;43755;49.736;8.734;2023-05-10T06:17:11;5.35;;;4.95;;
11447;SDS011;43755;49.736;8.734;2023-05-10T06:19:13;4.90;;;4.50;;
11447;SDS011;43755;49.736;8.734;2023-05-10T06:21:14;9.60;;;5.30;;
11447;SDS011;43755;49.736;8.734;2023-05-10T06:23:16;5.07;;;4.60;;
11447;SDS011;43755;49.736;8.734;2023-05-10T06:25:17;5.63;;;5.13;;
11447;SDS011;43755;49.736;8.734;2023-05-10T06:27:20;5.30;;;4.80;;
11447;SDS011;43755;49.736;8.734;2023-05-10T06:29:22;5.50;;;5.10;;
11447;SDS011;43755;49.736;8.734;2023-05-10T06:31:23;5.80;;;4.70;;
11447;SDS011;43755;49.736;8.734;2023-05-10T06:33:24;5.55;;;5.05;;
11447;SDS011;43755;49.736;8.734;2023-05-10T06:35:26;5.53;;;5.03;;
11447;SDS011;43755;49.736;8.734;2023-05-10T06:37:27;6.72;;;5.18;;
11447;SDS011;43755;49.736;8.734;2023-05-10T06:39:29;6.03;;;5.38;;
11447;SDS011;43755;49.736;8.734;2023-05-10T06:41:30;6.43;;;5.65;;
11447;SDS011;43755;49.736;8.734;2023-05-10T06:43:33;5.45;;;5.05;;
11447;SDS011;43755;49.736;8.734;2023-05-10T06:45:34;5.50;;;5.10;;
11447;SDS011;43755;49.736;8.734;2023-05-10T06:47:36;5.85;;;5.35;;
11447;SDS011;43755;49.736;8.734;2023-05-10T06:49:37;5.55;;;5.05;;
11447;SDS011;43755;49.736;8.734;2023-05-10T06:51:40;5.60;;;5.20;;
11447;SDS011;43755;49.736;8.734;2023-05-10T06:53:41;6.93;;;5.13;;
11447;SDS011;43755;49.736;8.734;2023-05-10T06:55:42;6.18;;;5.65;;
11447;SDS011;43755;49.736;8.734;2023-05-10T06:57:44;6.57;;;6.03;;
11447;SDS011;43755;49.736;8.734;2023-05-10T06:59:46;6.00;;;5.50;;
11447;SDS011;43755;49.736;8.734;2023-05-10T07:01:48;5.68;;;5.18;;
11447;SDS011;43755;49.736;8.734;2023-05-10T07:03:49;5.45;;;5.05;;
11447;SDS011;43755;49.736;8.734;2023-05-10T07:05:51;5.30;;;5.00;;
11447;SDS011;43755;49.736;8.734;2023-05-10T07:07:52;5.40;;;5.07;;
11447;SDS011;43755;49.736;8.734;2023-05-10T07:09:54;5.57;;;5.03;;
11447;SDS011;43755;49.736;8.734;2023-05-10T07:11:56;5.70;;;5.30;;
11447;SDS011;43755;49.736;8.734;2023-05-10T07:13:57;5.82;;;5.35;;
11447;SDS011;43755;49.736;8.734;2023-05-10T07:16:00;7.97;;;5.03;;
11447;SDS011;43755;49.736;8.734;2023-05-10T07:18:02;7.03;;;4.72;;
11447;SDS011;43755;49.736;8.734;2023-05-10T07:20:06;5.00;;;4.60;;
11447;SDS011;43755;49.736;8.734;2023-05-10T07:22:09;5.22;;;4.70;;
11447;SDS011;43755;49.736;8.734;2023-05-10T07:24:10;4.80;;;4.50;;
11447;SDS011;43755;49.736;8.734;2023-05-10T07:26:12;6.45;;;4.40;;
11447;SDS011;43755;49.736;8.734;2023-05-10T07:28:15;4.68;;;4.20;;
11447;SDS011;43755;49.736;8.734;2023-05-10T07:30:17;4.88;;;3.88;;
11447;SDS011;43755;49.736;8.734;2023-05-10T07:32:19;4.07;;;3.80;;
11447;SDS011;43755;49.736;8.734;2023-05-10T07:34:21;3.92;;;3.63;;
11447;SDS011;43755;49.736;8.734;2023-05-10T07:36:22;4.50;;;4.10;;
11447;SDS011;43755;49.736;8.734;2023-05-10T07:38:24;4.90;;;4.47;;
11447;SDS011;43755;49.736;8.734;2023-05-10T07:40:25;4.18;;;3.78;;
11447;SDS011;43755;49.736;8.734;2023-05-10T07:42:27;4.05;;;3.85;;
11447;SDS011;43755;49.736;8.734;2023-05-10T07:44:28;4.15;;;3.75;;
11447;SDS011;43755;49.736;8.734;2023-05-10T07:46:29;4.10;;;3.70;;
11447;SDS011;43755;49.736;8.734;2023-05-10T07:48:32;4.05;;;3.75;;
11447;SDS011;43755;49.736;8.734;2023-05-10T07:50:34;3.50;;;3.30;;
11447;SDS011;43755;49.736;8.734;2023-05-10T07:52:35;3.50;;;3.25;;
11447;SDS011;43755;49.736;8.734;2023-05-10T07:54:37;3.63;;;3.35;;
11447;SDS011;43755;49.736;8.734;2023-05-10T07:56:38;3.65;;;3.45;;
11447;SDS011;43755;49.736;8.734;2023-05-10T07:58:44;4.30;;;4.00;;
11447;SDS011;43755;49.736;8.734;2023-05-10T08:00:46;3.85;;;3.65;;
11447;SDS011;43755;49.736;8.734;2023-05-10T08:02:48;4.13;;;3.72;;
11447;SDS011;43755;49.736;8.734;2023-05-10T08:04:51;4.35;;;4.05;;
11447;SDS011;43755;49.736;8.734;2023-05-10T08:06:52;4.93;;;4.53;;
11447;SDS011;43755;49.736;8.734;2023-05-10T08:08:54;5.32;;;4.82;;
11447;SDS011;43755;49.736;8.734;2023-05-10T08:10:55;7.13;;;4.40;;
11447;SDS011;43755;49.736;8.734;2023-05-10T08:12:56;5.25;;;4.85;;
11447;SDS011;43755;49.736;8.734;2023-05-10T08:14:58;5.50;;;4.60;;
11447;SDS011;43755;49.736;8.734;2023-05-10T08:17:00;4.80;;;4.45;;
11447;SDS011;43755;49.736;8.734;2023-05-10T08:19:01;4.85;;;4.30;;
11447;SDS011;43755;49.736;8.734;2023-05-10T08:21:04;5.47;;;4.97;;
11447;SDS011;43755;49.736;8.734;2023-05-10T08:23:05;5.10;;;4.70;;
11447;SDS011;43755;49.736;8.734;2023-05-10T08:25:07;5.50;;;5.10;;
11447;SDS011;43755;49.736;8.734;2023-05-10T08:27:09;5.53;;;4.70;;
11447;SDS011;43755;49.736;8.734;2023-05-10T08:29:10;4.82;;;4.43;;
11447;SDS011;43755;49.736;8.734;2023-05-10T08:31:12;6.82;;;4.82;;
11447;SDS011;43755;49.736;8.734;2023-05-10T08:33:13;4.53;;;4.22;;
11447;SDS011;43755;49.736;8.734;2023-05-10T08:35:15;4.55;;;4.25;;
11447;SDS011;43755;49.736;8.734;2023-05-10T08:37:18;4.95;;;4.65;;
11447;SDS011;43755;49.736;8.734;2023-05-10T08:39:20;4.03;;;3.83;;
11447;SDS011;43755;49.736;8.734;2023-05-10T08:41:21;4.25;;;3.95;;
11447;SDS011;43755;49.736;8.734;2023-05-10T08:43:26;3.95;;;3.67;;
11447;SDS011;43755;49.736;8.734;2023-05-10T08:45:29;5.22;;;4.10;;
11447;SDS011;43755;49.736;8.734;2023-05-10T08:47:33;3.80;;;3.50;;
11447;SDS011;43755;49.736;8.734;2023-05-10T08:49:37;6.00;;;3.55;;
11447;SDS011;43755;49.736;8.734;2023-05-10T08:51:40;3.67;;;3.38;;
11447;SDS011;43755;49.736;8.734;2023-05-10T08:53:46;3.70;;;3.40;;
11447;SDS011;43755;49.736;8.734;2023-05-10T08:55:48;3.97;;;3.05;;
11447;SDS011;43755;49.736;8.734;2023-05-10T08:57:50;3.95;;;3.10;;
11447;SDS011;43755;49.736;8.734;2023-05-10T08:59:51;3.00;;;2.80;;
11447;SDS011;43755;49.736;8.734;2023-05-10T09:01:53;2.47;;;2.35;;
11447;SDS011;43755;49.736;8.734;2023-05-10T09:03:56;2.70;;;2.50;;
11447;SDS011;43755;49.736;8.734;2023-05-10T09:05:59;2.38;;;2.25;;
11447;SDS011;43755;49.736;8.734;2023-05-10T09:08:00;1.90;;;1.80;;
11447;SDS011;43755;49.736;8.734;2023-05-10T09:10:03;1.98;;;1.88;;
11447;SDS011;43755;49.736;8.734;2023-05-10T09:12:05;1.92;;;1.83;;
11447;SDS011;43755;49.736;8.734;2023-05-10T09:14:11;1.85;;;1.60;;
11447;SDS011;43755;49.736;8.734;2023-05-10T09:16:13;1.67;;;1.58;;
11447;SDS011;43755;49.736;8.734;2023-05-10T09:18:15;1.95;;;1.50;;
11447;SDS011;43755;49.736;8.734;2023-05-10T09:20:16;1.48;;;1.38;;
11447;SDS011;43755;49.736;8.734;2023-05-10T09:22:18;2.50;;;1.10;;
11447;SDS011;43755;49.736;8.734;2023-05-10T09:24:20;1.30;;;1.20;;
11447;SDS011;43755;49.736;8.734;2023-05-10T09:26:27;4.90;;;1.10;;
11447;SDS011;43755;49.736;8.734;2023-05-10T09:28:31;0.80;;;0.80;;
11447;SDS011;43755;49.736;8.734;2023-05-10T09:30:33;1.30;;;1.20;;
11447;SDS011;43755;49.736;8.734;2023-05-10T09:32:37;0.98;;;0.98;;
11447;SDS011;43755;49.736;8.734;2023-05-10T09:34:40;0.98;;;0.90;;
11447;SDS011;43755;49.736;8.734;2023-05-10T09:36:50;1.20;;;1.10;;
11447;SDS011;43755;49.736;8.734;2023-05-10T09:38:52;1.75;;;1.00;;
11447;SDS011;43755;49.736;8.734;2023-05-10T09:40:53;1.35;;;0.80;;
11447;SDS011;43755;49.736;8.734;2023-05-10T09:42:57;1.42;;;0.80;;
11447;SDS011;43755;49.736;8.734;2023-05-10T09:45:00;1.98;;;1.00;;
11447;SDS011;43755;49.736;8.734;2023-05-10T09:47:02;2.38;;;1.27;;
11447;SDS011;43755;49.736;8.734;2023-05-10T09:49:04;5.03;;;1.45;;
11447;SDS011;43755;49.736;8.734;2023-05-10T09:51:06;1.55;;;1.27;;
11447;SDS011;43755;49.736;8.734;2023-05-10T09:53:07;1.17;;;1.17;;
11447;SDS011;43755;49.736;8.734;2023-05-10T09:55:09;1.15;;;1.05;;
11447;SDS011;43755;49.736;8.734;2023-05-10T09:57:14;0.95;;;0.90;;
11447;SDS011;43755;49.736;8.734;2023-05-10T09:59:23;1.73;;;1.00;;
11447;SDS011;43755;49.736;8.734;2023-05-10T10:01:26;1.17;;;0.90;;
11447;SDS011;43755;49.736;8.734;2023-05-10T10:03:27;1.30;;;1.20;;
11447;SDS011;43755;49.736;8.734;2023-05-10T10:05:30;1.85;;;1.00;;
11447;SDS011;43755;49.736;8.734;2023-05-10T10:07:32;3.05;;;1.00;;
11447;SDS011;43755;49.736;8.734;2023-05-10T10:09:34;1.63;;;1.20;;
11447;SDS011;43755;49.736;8.734;2023-05-10T10:11:37;1.00;;;1.00;;
11447;SDS011;43755;49.736;8.734;2023-05-10T10:13:39;1.73;;;1.00;;
11447;SDS011;43755;49.736;8.734;2023-05-10T10:15:42;2.72;;;1.10;;
11447;SDS011;43755;49.736;8.734;2023-05-10T10:17:44;1.00;;;0.80;;
11447;SDS011;43755;49.736;8.734;2023-05-10T10:19:47;1.40;;;1.20;;
11447;SDS011;43755;49.736;8.734;2023-05-10T10:21:49;1.73;;;1.10;;
11447;SDS011;43755;49.736;8.734;2023-05-10T10:23:51;1.30;;;1.25;;
11447;SDS011;43755;49.736;8.734;2023-05-10T10:25:53;1.55;;;1.20;;
11447;SDS011;43755;49.736;8.734;2023-05-10T10:27:59;3.17;;;1.10;;
11447;SDS011;43755;49.736;8.734;2023-05-10T10:30:13;1.40;;;1.30;;
11447;SDS011;43755;49.736;8.734;2023-05-10T10:32:28;3.25;;;1.30;;
11447;SDS011;43755;49.736;8.734;2023-05-10T10:34:38;3.05;;;1.48;;
11447;SDS011;43755;49.736;8.734;2023-05-10T10:36:40;1.58;;;1.40;;
11447;SDS011;43755;49.736;8.734;2023-05-10T10:38:57;1.80;;;1.60;;
11447;SDS011;43755;49.736;8.734;2023-05-10T10:41:07;2.80;;;1.40;;
11447;SDS011;43755;49.736;8.734;2023-05-10T10:43:23;5.35;;;1.40;;
11447;SDS011;43755;49.736;8.734;2023-05-10T10:45:25;1.58;;;1.38;;
11447;SDS011;43755;49.736;8.734;2023-05-10T10:47:29;2.08;;;1.40;;
11447;SDS011;43755;49.736;8.734;2023-05-10T10:49:33;2.10;;;1.38;;
11447;SDS011;43755;49.736;8.734;2023-05-10T10:51:38;2.35;;;1.40;;
11447;SDS011;43755;49.736;8.734;2023-05-10T10:53:40;3.35;;;1.65;;
11447;SDS011;43755;49.736;8.734;2023-05-10T10:55:45;1.50;;;1.50;;
11447;SDS011;43755;49.736;8.734;2023-05-10T10:57:48;2.65;;;1.60;;
11447;SDS011;43755;49.736;8.734;2023-05-10T10:59:51;2.25;;;1.35;;
11447;SDS011;43755;49.736;8.734;2023-05-10T11:04:44;3.63;;;1.65;;
11447;SDS011;43755;49.736;8.734;2023-05-10T11:06:46;1.52;;;1.40;;
11447;SDS011;43755;49.736;8.734;2023-05-10T11:08:47;2.40;;;1.83;;
11447;SDS011;43755;49.736;8.734;2023-05-10T11:10:50;1.60;;;1.50;;
11447;SDS011;43755;49.736;8.734;2023-05-10T11:13:04;2.65;;;1.30;;
11447;SDS011;43755;49.736;8.734;2023-05-10T11:15:08;1.50;;;1.40;;
11447;SDS011;43755;49.736;8.734;2023-05-10T11:17:22;2.38;;;1.48;;
11447;SDS011;43755;49.736;8.734;2023-05-10T11:19:28;1.55;;;1.48;;
11447;SDS011;43755;49.736;8.734;2023-05-10T11:21:29;2.58;;;1.60;;
11447;SDS011;43755;49.736;8.734;2023-05-10T11:23:31;1.40;;;1.30;;
11447;SDS011;43755;49.736;8.734;2023-05-10T11:25:34;1.20;;;1.20;;
11447;SDS011;43755;49.736;8.734;2023-05-10T11:27:36;1.20;;;1.20;;
11447;SDS011;43755;49.736;8.734;2023-05-10T11:29:38;1.58;;;1.00;;
11447;SDS011;43755;49.736;8.734;2023-05-10T11:31:42;0.98;;;0.98;;
11447;SDS011;43755;49.736;8.734;2023-05-10T11:33:45;1.10;;;1.00;;
11447;SDS011;43755;49.736;8.734;2023-05-10T11:35:49;1.80;;;1.13;;
11447;SDS011;43755;49.736;8.734;2023-05-10T11:37:51;0.88;;;0.88;;
11447;SDS011;43755;49.736;8.734;2023-05-10T11:39:52;0.82;;;0.82;;
11447;SDS011;43755;49.736;8.734;2023-05-10T11:41:55;1.58;;;1.15;;
11447;SDS011;43755;49.736;8.734;2023-05-10T11:43:58;0.80;;;0.80;;
11447;SDS011;43755;49.736;8.734;2023-05-10T11:45:59;1.27;;;0.80;;
11447;SDS011;43755;49.736;8.734;2023-05-10T11:48:01;3.13;;;0.95;;
11447;SDS011;43755;49.736;8.734;2023-05-10T11:50:03;2.47;;;1.10;;
11447;SDS011;43755;49.736;8.734;2023-05-10T11:52:10;1.90;;;1.00;;
11447;SDS011;43755;49.736;8.734;2023-05-10T11:54:12;2.58;;;1.02;;
11447;SDS011;43755;49.736;8.734;2023-05-10T11:56:13;3.00;;;1.00;;
11447;SDS011;43755;49.736;8.734;2023-05-10T11:58:14;4.70;;;1.20;;
11447;SDS011;43755;49.736;8.734;2023-05-10T12:00:16;3.38;;;1.10;;
11447;SDS011;43755;49.736;8.734;2023-05-10T12:02:17;1.17;;;1.05;;
11447;SDS011;43755;49.736;8.734;2023-05-10T12:04:19;0.90;;;0.90;;
11447;SDS011;43755;49.736;8.734;2023-05-10T12:06:21;1.70;;;1.10;;
11447;SDS011;43755;49.736;8.734;2023-05-10T12:08:24;1.20;;;1.10;;
11447;SDS011;43755;49.736;8.734;2023-05-10T12:10:26;1.00;;;1.00;;
11447;SDS011;43755;49.736;8.734;2023-05-10T12:12:34;2.30;;;0.90;;
11447;SDS011;43755;49.736;8.734;2023-05-10T12:14:36;1.75;;;1.00;;
11447;SDS011;43755;49.736;8.734;2023-05-10T12:16:38;1.30;;;1.20;;
11447;SDS011;43755;49.736;8.734;2023-05-10T12:18:39;0.80;;;0.80;;
11447;SDS011;43755;49.736;8.734;2023-05-10T12:20:41;1.50;;;0.98;;
11447;SDS011;43755;49.736;8.734;2023-05-10T12:22:46;1.95;;;0.90;;
11447;SDS011;43755;49.736;8.734;2023-05-10T12:24:51;1.87;;;0.80;;
11447;SDS011;43755;49.736;8.734;2023-05-10T12:26:52;0.80;;;0.80;;